| time (UTC) | temp F | wind direction | speed MPH | gust MPH | rain 1hr in | rain 24hr in | rain mn in | humidity % | barometer mb |
| 20260905203014 | 92 | 120 | 1.0 | 10.0 | 0.00 | 0.00 | 0.00 | 60 | 1008.7 |
| 20260905201514 | 93 | 177 | 2.0 | 7.0 | 0.00 | 0.00 | 0.00 | 56 | 1009.0 |
| 20260905200015 | 95 | 15 | 0.0 | 2.0 | 0.00 | 0.00 | 0.00 | 53 | 1008.8 |
| 20260905194514 | 95 | 15 | 0.0 | 2.0 | 0.00 | 0.00 | 0.00 | 53 | 1008.7 |
| 20260905193011 | 94 | 319 | 0.0 | 2.0 | 0.00 | 0.00 | 0.00 | 54 | 1008.8 |
| 20260905191510 | 94 | 339 | 0.0 | 2.0 | 0.00 | 0.00 | 0.00 | 55 | 1009.0 |
| 20260905190009 | 94 | 340 | 1.0 | 3.0 | 0.00 | 0.00 | 0.00 | 52 | 1008.9 |
| 20260905184507 | 95 | 331 | 1.0 | 2.0 | 0.00 | 0.00 | 0.00 | 53 | 1009.2 |
| 20260905183006 | 96 | 312 | 1.0 | 7.0 | 0.00 | 0.00 | 0.00 | 52 | 1009.4 |
| 20260905181505 | 97 | 307 | 1.0 | 4.0 | 0.00 | 0.00 | 0.00 | 51 | 1009.3 |
| 20260905180005 | 97 | 195 | 1.0 | 7.0 | 0.00 | 0.00 | 0.00 | 53 | 1009.4 |
| 20260905174501 | 97 | 330 | 3.0 | 9.0 | 0.00 | 0.00 | 0.00 | 52 | 1009.8 |
| 20260905173100 | 96 | 273 | 3.0 | 10.0 | 0.00 | 0.00 | 0.00 | 54 | 1010.1 |
| 20260905171606 | 96 | 337 | 2.0 | 6.0 | 0.00 | 0.00 | 0.00 | 56 | 1010.4 |
| 20260905170059 | 97 | 339 | 3.0 | 8.0 | 0.00 | 0.00 | 0.00 | 52 | 1010.7 |
| 20260905164556 | 99 | 355 | 1.0 | 6.0 | 0.00 | 0.00 | 0.00 | 52 | 1010.6 |
| 20260905163052 | 97 | 269 | 2.0 | 10.0 | 0.00 | 0.00 | 0.00 | 54 | 1010.7 |
| 20260905161548 | 95 | 352 | 1.0 | 6.0 | 0.00 | 0.00 | 0.00 | 56 | 1010.8 |
| 20260905160051 | 94 | 318 | 1.0 | 8.0 | 0.00 | 0.00 | 0.00 | 58 | 1011.2 |
| 20260905154553 | 95 | 231 | 1.0 | 3.0 | 0.00 | 0.00 | 0.00 | 57 | 1011.4 |
| 20260905153044 | 95 | 246 | 2.0 | 6.0 | 0.00 | 0.00 | 0.00 | 59 | 1011.3 |
| 20260905151541 | 93 | 312 | 2.0 | 7.0 | 0.00 | 0.00 | 0.00 | 59 | 1011.5 |
| 20260905150035 | 92 | 15 | 2.0 | 7.0 | 0.00 | 0.00 | 0.00 | 61 | 1011.7 |
| 20260905144539 | 90 | 55 | 2.0 | 5.0 | 0.00 | 0.00 | 0.00 | 62 | 1011.5 |
| 20260905143026 | 88 | 325 | 0.0 | 4.0 | 0.00 | 0.00 | 0.00 | 67 | 1011.5 |
| 20260905141524 | 87 | 231 | 1.0 | 4.0 | 0.00 | 0.00 | 0.00 | 68 | 1011.8 |
| 20260905140018 | 85 | 324 | 1.0 | 5.0 | 0.00 | 0.00 | 0.00 | 73 | 1011.7 |
| 20260905134512 | 82 | 173 | 1.0 | 5.0 | 0.00 | 0.00 | 0.00 | 76 | 1011.5 |
| 20260905133009 | 80 | 260 | 0.0 | 1.0 | 0.00 | 0.00 | 0.00 | 82 | 1011.5 |
| 20260905131505 | 78 | 191 | 1.0 | 4.0 | 0.00 | 0.00 | 0.00 | 87 | 1011.4 |
| 20260905130100 | 76 | 182 | 0.0 | 2.0 | 0.00 | 0.00 | 0.00 | 90 | 1011.5 |
| 20260905124559 | 74 | 182 | 1.0 | 5.0 | 0.00 | 0.00 | 0.00 | 92 | 1011.5 |
| 20260905123100 | 73 | 188 | 0.0 | 3.0 | 0.00 | 0.00 | 0.00 | 93 | 1011.7 |
| 20260905121556 | 72 | 116 | 0.0 | 2.0 | 0.00 | 0.00 | 0.00 | 94 | 1011.5 |
| 20260905120054 | 71 | 105 | 1.0 | 2.0 | 0.00 | 0.00 | 0.00 | 94 | 1011.6 |
| 20260905114607 | 71 | 105 | 0.0 | 1.0 | 0.00 | 0.00 | 0.00 | 93 | 1011.5 |
| 20260905113051 | 70 | 105 | 0.0 | 2.0 | 0.00 | 0.00 | 0.00 | 93 | 1011.4 |
| 20260905111557 | 70 | 105 | 0.0 | 0.0 | 0.00 | 0.00 | 0.00 | 93 | 1011.2 |
| 20260905110046 | 70 | 105 | 0.0 | 0.0 | 0.00 | 0.00 | 0.00 | 93 | 1011.3 |
| 20260905104550 | 70 | 105 | 0.0 | 0.0 | 0.00 | 0.00 | 0.00 | 92 | 1011.1 |
| 20260905103047 | 70 | 105 | 0.0 | 0.0 | 0.00 | 0.00 | 0.00 | 92 | 1011.1 |
| 20260905101543 | 71 | 105 | 0.0 | 0.0 | 0.00 | 0.00 | 0.00 | 92 | 1011.0 |
| 20260905100041 | 71 | 105 | 0.0 | 0.0 | 0.00 | 0.00 | 0.00 | 92 | 1011.0 |
| 20260905094557 | 71 | 105 | 0.0 | 0.0 | 0.00 | 0.00 | 0.00 | 91 | 1011.0 |
| 20260905093043 | 71 | 105 | 0.0 | 1.0 | 0.00 | 0.00 | 0.00 | 91 | 1011.1 |
| 20260905091536 | 72 | 105 | 0.0 | 0.0 | 0.00 | 0.00 | 0.00 | 91 | 1011.3 |
| 20260905090033 | 72 | 105 | 0.0 | 0.0 | 0.00 | 0.00 | 0.00 | 90 | 1011.2 |
| 20260905084540 | 72 | 105 | 0.0 | 0.0 | 0.00 | 0.00 | 0.00 | 90 | 1011.2 |
| 20260905083032 | 72 | 105 | 0.0 | 0.0 | 0.00 | 0.00 | 0.00 | 90 | 1011.2 |
| 20260905081530 | 72 | 105 | 0.0 | 1.0 | 0.00 | 0.00 | 0.00 | 90 | 1011.3 |
| 20260905080045 | 73 | 105 | 0.0 | 0.0 | 0.00 | 0.00 | 0.00 | 89 | 1011.4 |
| 20260905074527 | 73 | 105 | 0.0 | 0.0 | 0.00 | 0.00 | 0.00 | 89 | 1011.7 |
| 20260905073037 | 73 | 105 | 0.0 | 0.0 | 0.00 | 0.00 | 0.00 | 89 | 1011.9 |
| 20260905071523 | 73 | 105 | 0.0 | 0.0 | 0.00 | 0.00 | 0.00 | 88 | 1012.2 |
| 20260905070022 | 73 | 105 | 0.0 | 0.0 | 0.00 | 0.00 | 0.00 | 88 | 1012.4 |
| 20260905064520 | 73 | 105 | 0.0 | 2.0 | 0.00 | 0.00 | 0.00 | 87 | 1012.4 |
| 20260905063019 | 74 | 106 | 0.0 | 0.0 | 0.00 | 0.00 | 0.00 | 87 | 1012.6 |
| 20260905061520 | 74 | 106 | 0.0 | 0.0 | 0.00 | 0.00 | 0.00 | 86 | 1012.7 |
| 20260905060017 | 74 | 108 | 0.0 | 1.0 | 0.00 | 0.00 | 0.00 | 86 | 1012.8 |
| 20260905054512 | 75 | 110 | 0.0 | 1.0 | 0.00 | 0.00 | 0.00 | 85 | 1013.1 |
| 20260905053018 | 75 | 108 | 0.0 | 0.0 | 0.00 | 0.00 | 0.00 | 84 | 1013.1 |
| 20260905051507 | 76 | 10 | 0.0 | 0.0 | 0.00 | 0.00 | 0.00 | 84 | 1013.5 |
| 20260905050010 | 76 | 10 | 0.0 | 1.0 | 0.00 | 0.00 | 0.00 | 83 | 1013.7 |
| 20260905044505 | 76 | 109 | 0.0 | 0.0 | 0.00 | 0.00 | 0.00 | 82 | 1014.0 |
| 20260905043123 | 77 | 111 | 0.0 | 1.0 | 0.00 | 0.00 | 0.00 | 82 | 1014.0 |
| 20260905041558 | 77 | 109 | 0.0 | 0.0 | 0.00 | 0.00 | 0.00 | 80 | 1013.9 |
| 20260905040116 | 77 | 108 | 0.0 | 0.0 | 0.00 | 0.00 | 0.00 | 79 | 1014.2 |
| 20260905034559 | 78 | 10 | 0.0 | 1.0 | 0.00 | 0.00 | 0.00 | 78 | 1014.3 |
| 20260905033059 | 79 | 108 | 0.0 | 2.0 | 0.00 | 0.00 | 0.00 | 77 | 1014.0 |
| 20260905031554 | 79 | 110 | 0.0 | 1.0 | 0.00 | 0.00 | 0.00 | 76 | 1014.2 |
| 20260905030053 | 80 | 108 | 0.0 | 2.0 | 0.00 | 0.00 | 0.00 | 75 | 1014.2 |
| 20260905024553 | 81 | 112 | 0.0 | 1.0 | 0.00 | 0.00 | 0.00 | 74 | 1014.2 |
| 20260905023058 | 81 | 114 | 0.0 | 2.0 | 0.00 | 0.00 | 0.00 | 73 | 1013.9 |
| 20260905021552 | 82 | 109 | 0.0 | 3.0 | 0.00 | 0.00 | 0.00 | 72 | 1013.8 |
| 20260905020051 | 82 | 113 | 0.0 | 4.0 | 0.00 | 0.00 | 0.00 | 72 | 1013.9 |
| 20260905014551 | 83 | 10 | 0.0 | 2.0 | 0.00 | 0.00 | 0.00 | 71 | 1014.1 |
| 20260905013057 | 83 | 5 | 0.0 | 1.0 | 0.00 | 0.00 | 0.00 | 70 | 1013.6 |
| 20260905011550 | 84 | 5 | 0.0 | 2.0 | 0.00 | 0.00 | 0.00 | 69 | 1013.1 |
| 20260905010052 | 84 | 5 | 0.0 | 2.0 | 0.00 | 0.00 | 0.00 | 69 | 1012.5 |
| 20260905004548 | 84 | 15 | 1.0 | 3.0 | 0.00 | 0.00 | 0.00 | 69 | 1012.4 |
| 20260905003150 | 85 | 162 | 2.0 | 6.0 | 0.00 | 0.00 | 0.00 | 66 | 1012.2 |
| 20260905001549 | 86 | 173 | 1.0 | 7.0 | 0.00 | 0.00 | 0.00 | 67 | 1011.5 |
| 20260905000047 | 86 | 325 | 1.0 | 8.0 | 0.00 | 0.00 | 0.00 | 66 | 1011.9 |
| 20260904234552 | 87 | 260 | 0.0 | 7.0 | 0.00 | 0.00 | 0.00 | 64 | 1012.0 |
| 20260904233046 | 88 | 178 | 4.0 | 11.0 | 0.00 | 0.00 | 0.00 | 62 | 1012.4 |
| 20260904231545 | 89 | 229 | 4.0 | 9.0 | 0.00 | 0.00 | 0.00 | 60 | 1012.7 |
| 20260904230045 | 90 | 219 | 5.0 | 12.0 | 0.00 | 0.00 | 0.00 | 58 | 1012.2 |
| 20260904224546 | 92 | 226 | 4.0 | 12.0 | 0.00 | 0.00 | 0.00 | 56 | 1011.7 |
| 20260904223043 | 95 | 176 | 2.0 | 6.0 | 0.00 | 0.00 | 0.00 | 52 | 1011.3 |
| 20260904221544 | 96 | 316 | 2.0 | 7.0 | 0.00 | 0.00 | 0.00 | 51 | 1011.6 |
| 20260904220106 | 98 | 314 | 2.0 | 8.0 | 0.00 | 0.00 | 0.00 | 48 | 1011.3 |
| 20260904214542 | 100 | 353 | 2.0 | 5.0 | 0.00 | 0.00 | 0.00 | 45 | 1011.2 |
| 20260904213042 | 102 | 302 | 1.0 | 5.0 | 0.00 | 0.00 | 0.00 | 43 | 1011.3 |
| 20260904211555 | 102 | 321 | 2.0 | 5.0 | 0.00 | 0.00 | 0.00 | 41 | 1011.2 |
| 20260904210046 | 103 | 352 | 2.0 | 7.0 | 0.00 | 0.00 | 0.00 | 42 | 1011.2 |
| 20260904204540 | 104 | 298 | 2.0 | 6.0 | 0.00 | 0.00 | 0.00 | 39 | 1011.0 |
| 20260904203048 | 104 | 20 | 2.0 | 6.0 | 0.00 | 0.00 | 0.00 | 40 | 1010.9 |